Terminal Aerodrome Forecast
Issued by NWS

Home | Current Version | Previous Version | Graphics & Text | Print | Product List | Glossary On
Versions: 1 2 3 4 5 6 7 8 9 10 11 12 13 14 15 16 17 18 19
000
FTUS43 KICT 221256 AAA
TAFCNU
TAF AMD
KCNU 221256Z 2213/2312 02013KT P6SM -RA OVC060
     FM221500 35015G24KT P6SM VCSH OVC025
     FM221800 34016G25KT P6SM OVC040
     FM230700 33005KT P6SM FEW200=

USA.gov is the U.S. government's official web portal to all federal, state and local government web resources and services.